sensor_id;sensor_type;location;lat;lon;timestamp;pressure;altitude;pressure_sealevel;temperature;humidity
19596;BME280;9945;46.010;8.946;2023-04-03T00:00:22;96930.91;;;15.80;29.39
19596;BME280;9945;46.010;8.946;2023-04-03T00:02:49;96923.28;;;15.92;28.91
19596;BME280;9945;46.010;8.946;2023-04-03T00:05:16;96920.88;;;15.90;28.77
19596;BME280;9945;46.010;8.946;2023-04-03T00:07:43;96921.41;;;15.85;29.18
19596;BME280;9945;46.010;8.946;2023-04-03T00:10:11;96918.22;;;15.90;28.41
19596;BME280;9945;46.010;8.946;2023-04-03T00:12:40;96925.69;;;15.86;29.56
19596;BME280;9945;46.010;8.946;2023-04-03T00:15:07;96924.19;;;15.99;28.39
19596;BME280;9945;46.010;8.946;2023-04-03T00:17:34;96930.34;;;16.06;29.20
19596;BME280;9945;46.010;8.946;2023-04-03T00:20:02;96925.94;;;15.92;28.92
19596;BME280;9945;46.010;8.946;2023-04-03T00:22:29;96924.13;;;15.92;28.90
19596;BME280;9945;46.010;8.946;2023-04-03T00:24:56;96930.22;;;15.93;29.18
19596;BME280;9945;46.010;8.946;2023-04-03T00:27:24;96928.44;;;16.00;29.09
19596;BME280;9945;46.010;8.946;2023-04-03T00:29:51;96921.75;;;15.97;28.78
19596;BME280;9945;46.010;8.946;2023-04-03T00:32:18;96930.66;;;15.96;28.79
19596;BME280;9945;46.010;8.946;2023-04-03T00:34:44;96925.50;;;15.88;29.61
19596;BME280;9945;46.010;8.946;2023-04-03T00:37:11;96926.88;;;15.84;29.34
19596;BME280;9945;46.010;8.946;2023-04-03T00:39:38;96912.00;;;15.98;28.19
19596;BME280;9945;46.010;8.946;2023-04-03T00:42:05;96913.78;;;15.91;28.92
19596;BME280;9945;46.010;8.946;2023-04-03T00:47:38;96912.50;;;15.86;29.54
19596;BME280;9945;46.010;8.946;2023-04-03T00:50:08;96916.41;;;15.91;29.24
19596;BME280;9945;46.010;8.946;2023-04-03T00:52:35;96908.78;;;15.81;29.70
19596;BME280;9945;46.010;8.946;2023-04-03T00:55:07;96910.16;;;15.77;29.18
19596;BME280;9945;46.010;8.946;2023-04-03T00:57:35;96905.34;;;15.80;29.90
19596;BME280;9945;46.010;8.946;2023-04-03T01:00:05;96907.34;;;15.78;28.96
19596;BME280;9945;46.010;8.946;2023-04-03T01:02:34;96908.47;;;15.69;29.84
19596;BME280;9945;46.010;8.946;2023-04-03T01:05:03;96902.88;;;15.79;29.95
19596;BME280;9945;46.010;8.946;2023-04-03T01:07:31;96900.19;;;15.72;30.05
19596;BME280;9945;46.010;8.946;2023-04-03T01:10:02;96898.72;;;15.70;29.76
19596;BME280;9945;46.010;8.946;2023-04-03T01:12:31;96900.09;;;15.66;29.10
19596;BME280;9945;46.010;8.946;2023-04-03T01:15:00;96901.41;;;15.55;31.37
19596;BME280;9945;46.010;8.946;2023-04-03T01:17:30;96890.56;;;15.65;29.57
19596;BME280;9945;46.010;8.946;2023-04-03T01:22:56;96889.03;;;15.56;29.57
19596;BME280;9945;46.010;8.946;2023-04-03T01:25:25;96899.47;;;15.49;29.86
19596;BME280;9945;46.010;8.946;2023-04-03T01:27:52;96897.84;;;15.63;29.80
19596;BME280;9945;46.010;8.946;2023-04-03T01:30:21;96896.00;;;15.48;30.26
19596;BME280;9945;46.010;8.946;2023-04-03T01:32:51;96900.22;;;15.43;32.41
19596;BME280;9945;46.010;8.946;2023-04-03T01:35:18;96898.34;;;15.37;34.20
19596;BME280;9945;46.010;8.946;2023-04-03T01:37:45;96898.75;;;15.19;35.48
19596;BME280;9945;46.010;8.946;2023-04-03T01:40:12;96891.34;;;15.14;35.16
19596;BME280;9945;46.010;8.946;2023-04-03T01:42:39;96890.56;;;14.99;33.02
19596;BME280;9945;46.010;8.946;2023-04-03T01:45:07;96881.69;;;14.86;33.79
19596;BME280;9945;46.010;8.946;2023-04-03T01:47:34;96880.94;;;14.92;32.34
19596;BME280;9945;46.010;8.946;2023-04-03T01:50:02;96880.41;;;14.96;32.95
19596;BME280;9945;46.010;8.946;2023-04-03T01:52:29;96878.31;;;14.92;33.31
19596;BME280;9945;46.010;8.946;2023-04-03T01:54:56;96874.66;;;14.93;31.54
19596;BME280;9945;46.010;8.946;2023-04-03T01:57:23;96875.47;;;15.08;31.11
19596;BME280;9945;46.010;8.946;2023-04-03T01:59:50;96894.09;;;15.06;32.24
19596;BME280;9945;46.010;8.946;2023-04-03T02:02:17;96884.41;;;14.92;35.89
19596;BME280;9945;46.010;8.946;2023-04-03T02:04:45;96875.25;;;14.88;35.59
19596;BME280;9945;46.010;8.946;2023-04-03T02:07:13;96882.22;;;14.81;38.56
19596;BME280;9945;46.010;8.946;2023-04-03T02:09:40;96881.97;;;14.61;40.32
19596;BME280;9945;46.010;8.946;2023-04-03T02:12:07;96880.84;;;14.56;40.23
19596;BME280;9945;46.010;8.946;2023-04-03T02:14:34;96886.00;;;14.34;37.45
19596;BME280;9945;46.010;8.946;2023-04-03T02:17:01;96884.66;;;14.38;34.68
19596;BME280;9945;46.010;8.946;2023-04-03T02:19:30;96884.03;;;14.51;35.18
19596;BME280;9945;46.010;8.946;2023-04-03T02:21:57;96878.22;;;14.56;35.13
19596;BME280;9945;46.010;8.946;2023-04-03T02:24:25;96872.34;;;14.54;33.92
19596;BME280;9945;46.010;8.946;2023-04-03T02:26:53;96876.59;;;14.69;32.85
19596;BME280;9945;46.010;8.946;2023-04-03T02:29:20;96864.25;;;14.70;33.09
19596;BME280;9945;46.010;8.946;2023-04-03T02:31:47;96868.31;;;14.72;32.36
19596;BME280;9945;46.010;8.946;2023-04-03T02:34:13;96874.13;;;14.83;32.31
19596;BME280;9945;46.010;8.946;2023-04-03T02:36:40;96870.25;;;14.79;32.72
19596;BME280;9945;46.010;8.946;2023-04-03T02:39:07;96852.97;;;14.76;32.25
19596;BME280;9945;46.010;8.946;2023-04-03T02:41:36;96868.50;;;14.86;32.13
19596;BME280;9945;46.010;8.946;2023-04-03T02:44:04;96870.56;;;14.90;31.79
19596;BME280;9945;46.010;8.946;2023-04-03T02:46:32;96866.41;;;14.96;32.19
19596;BME280;9945;46.010;8.946;2023-04-03T02:48:59;96867.75;;;14.92;32.39
19596;BME280;9945;46.010;8.946;2023-04-03T02:51:26;96863.56;;;14.97;31.72
19596;BME280;9945;46.010;8.946;2023-04-03T02:53:53;96869.16;;;14.88;33.80
19596;BME280;9945;46.010;8.946;2023-04-03T02:56:20;96873.50;;;14.81;35.47
19596;BME280;9945;46.010;8.946;2023-04-03T02:58:48;96861.06;;;14.60;37.06
19596;BME280;9945;46.010;8.946;2023-04-03T03:01:15;96854.59;;;14.48;34.85
19596;BME280;9945;46.010;8.946;2023-04-03T03:03:42;96860.75;;;14.55;34.24
19596;BME280;9945;46.010;8.946;2023-04-03T03:06:10;96854.97;;;14.59;33.59
19596;BME280;9945;46.010;8.946;2023-04-03T03:08:37;96854.97;;;14.74;32.41
19596;BME280;9945;46.010;8.946;2023-04-03T03:11:04;96856.25;;;14.78;32.27
19596;BME280;9945;46.010;8.946;2023-04-03T03:13:31;96862.94;;;14.81;32.35
19596;BME280;9945;46.010;8.946;2023-04-03T03:16:00;96855.97;;;14.88;32.70
19596;BME280;9945;46.010;8.946;2023-04-03T03:18:27;96856.41;;;14.76;32.00
19596;BME280;9945;46.010;8.946;2023-04-03T03:20:56;96858.31;;;14.83;32.57
19596;BME280;9945;46.010;8.946;2023-04-03T03:23:24;96854.56;;;14.92;33.02
19596;BME280;9945;46.010;8.946;2023-04-03T03:25:55;96861.13;;;14.96;32.15
19596;BME280;9945;46.010;8.946;2023-04-03T03:28:22;96854.31;;;14.87;32.93
19596;BME280;9945;46.010;8.946;2023-04-03T03:30:49;96848.41;;;14.85;32.22
19596;BME280;9945;46.010;8.946;2023-04-03T03:33:17;96847.66;;;14.91;33.31
19596;BME280;9945;46.010;8.946;2023-04-03T03:35:44;96853.59;;;14.93;31.75
19596;BME280;9945;46.010;8.946;2023-04-03T03:38:12;96854.31;;;14.87;32.90
19596;BME280;9945;46.010;8.946;2023-04-03T03:40:39;96849.59;;;14.82;32.27
19596;BME280;9945;46.010;8.946;2023-04-03T03:43:05;96849.78;;;14.95;32.36
19596;BME280;9945;46.010;8.946;2023-04-03T03:45:32;96845.22;;;15.04;31.73
19596;BME280;9945;46.010;8.946;2023-04-03T03:48:00;96839.47;;;15.00;31.37
19596;BME280;9945;46.010;8.946;2023-04-03T03:50:28;96837.13;;;14.91;31.54
19596;BME280;9945;46.010;8.946;2023-04-03T03:52:55;96843.69;;;14.95;31.82
19596;BME280;9945;46.010;8.946;2023-04-03T03:55:22;96844.84;;;14.92;31.70
19596;BME280;9945;46.010;8.946;2023-04-03T03:57:49;96850.13;;;14.92;31.69
19596;BME280;9945;46.010;8.946;2023-04-03T04:00:16;96843.13;;;14.85;31.97
19596;BME280;9945;46.010;8.946;2023-04-03T04:02:43;96847.59;;;14.84;31.76
19596;BME280;9945;46.010;8.946;2023-04-03T04:05:10;96854.44;;;14.79;32.64
19596;BME280;9945;46.010;8.946;2023-04-03T04:07:38;96849.75;;;14.81;31.77
19596;BME280;9945;46.010;8.946;2023-04-03T04:10:06;96845.31;;;14.81;32.84
19596;BME280;9945;46.010;8.946;2023-04-03T04:12:33;96848.94;;;14.80;32.29
19596;BME280;9945;46.010;8.946;2023-04-03T04:15:01;96856.50;;;14.83;32.15
19596;BME280;9945;46.010;8.946;2023-04-03T04:17:28;96854.78;;;14.75;31.94
19596;BME280;9945;46.010;8.946;2023-04-03T04:19:55;96851.78;;;14.79;32.39
19596;BME280;9945;46.010;8.946;2023-04-03T04:22:21;96843.50;;;14.67;32.71
19596;BME280;9945;46.010;8.946;2023-04-03T04:24:50;96845.78;;;14.70;33.06
19596;BME280;9945;46.010;8.946;2023-04-03T04:27:16;96843.50;;;14.67;33.08
19596;BME280;9945;46.010;8.946;2023-04-03T04:29:43;96849.13;;;14.64;32.20
19596;BME280;9945;46.010;8.946;2023-04-03T04:32:10;96850.69;;;14.73;33.66
19596;BME280;9945;46.010;8.946;2023-04-03T04:34:37;96841.97;;;14.72;34.05
19596;BME280;9945;46.010;8.946;2023-04-03T04:37:04;96856.50;;;14.68;33.43
19596;BME280;9945;46.010;8.946;2023-04-03T04:39:30;96847.41;;;14.56;37.52
19596;BME280;9945;46.010;8.946;2023-04-03T04:41:59;96844.88;;;14.48;36.48
19596;BME280;9945;46.010;8.946;2023-04-03T04:44:26;96844.44;;;14.59;33.72
19596;BME280;9945;46.010;8.946;2023-04-03T04:46:52;96846.72;;;14.62;32.90
19596;BME280;9945;46.010;8.946;2023-04-03T04:49:20;96841.44;;;14.62;32.38
19596;BME280;9945;46.010;8.946;2023-04-03T04:51:46;96837.34;;;14.60;32.65
19596;BME280;9945;46.010;8.946;2023-04-03T04:54:13;96839.41;;;14.64;32.52
19596;BME280;9945;46.010;8.946;2023-04-03T04:56:40;96836.06;;;14.85;32.23
19596;BME280;9945;46.010;8.946;2023-04-03T04:59:08;96840.25;;;14.80;31.88
19596;BME280;9945;46.010;8.946;2023-04-03T05:01:35;96846.41;;;14.87;31.74
19596;BME280;9945;46.010;8.946;2023-04-03T05:04:02;96840.50;;;14.85;31.83
19596;BME280;9945;46.010;8.946;2023-04-03T05:06:29;96840.69;;;14.83;32.24
19596;BME280;9945;46.010;8.946;2023-04-03T05:08:57;96844.25;;;14.75;32.34
19596;BME280;9945;46.010;8.946;2023-04-03T05:11:24;96846.31;;;14.80;32.47
19596;BME280;9945;46.010;8.946;2023-04-03T05:13:51;96853.59;;;14.78;32.31
19596;BME280;9945;46.010;8.946;2023-04-03T05:16:19;96857.50;;;14.82;32.60
19596;BME280;9945;46.010;8.946;2023-04-03T05:18:46;96855.50;;;14.84;32.43
19596;BME280;9945;46.010;8.946;2023-04-03T05:21:13;96858.13;;;14.84;32.16
19596;BME280;9945;46.010;8.946;2023-04-03T05:23:40;96863.16;;;14.79;32.30
19596;BME280;9945;46.010;8.946;2023-04-03T05:26:07;96860.59;;;14.86;32.43
19596;BME280;9945;46.010;8.946;2023-04-03T05:28:34;96860.41;;;14.87;32.26
19596;BME280;9945;46.010;8.946;2023-04-03T05:31:02;96859.50;;;14.95;32.71
19596;BME280;9945;46.010;8.946;2023-04-03T05:33:30;96866.47;;;15.02;32.94
19596;BME280;9945;46.010;8.946;2023-04-03T05:36:02;96867.75;;;14.92;32.42
19596;BME280;9945;46.010;8.946;2023-04-03T05:38:29;96861.41;;;14.86;32.46
19596;BME280;9945;46.010;8.946;2023-04-03T05:40:56;96861.66;;;14.91;32.34
19596;BME280;9945;46.010;8.946;2023-04-03T05:43:23;96864.22;;;14.85;32.12
19596;BME280;9945;46.010;8.946;2023-04-03T05:45:50;96868.13;;;15.03;32.04
19596;BME280;9945;46.010;8.946;2023-04-03T05:48:17;96858.50;;;14.96;32.28
19596;BME280;9945;46.010;8.946;2023-04-03T05:50:46;96866.59;;;14.94;32.10
19596;BME280;9945;46.010;8.946;2023-04-03T05:53:16;96867.84;;;14.98;32.40
19596;BME280;9945;46.010;8.946;2023-04-03T05:55:44;96860.22;;;15.03;31.92
19596;BME280;9945;46.010;8.946;2023-04-03T05:58:11;96857.50;;;14.97;31.97
19596;BME280;9945;46.010;8.946;2023-04-03T06:00:38;96848.84;;;15.03;32.24
19596;BME280;9945;46.010;8.946;2023-04-03T06:03:05;96845.38;;;15.02;32.31
19596;BME280;9945;46.010;8.946;2023-04-03T06:05:32;96842.88;;;15.30;31.45
19596;BME280;9945;46.010;8.946;2023-04-03T06:08:01;96842.13;;;15.36;31.49
19596;BME280;9945;46.010;8.946;2023-04-03T06:10:29;96861.41;;;15.73;32.42
19596;BME280;9945;46.010;8.946;2023-04-03T06:12:56;96861.44;;;15.58;36.68
19596;BME280;9945;46.010;8.946;2023-04-03T06:15:23;96869.22;;;15.66;35.17
19596;BME280;9945;46.010;8.946;2023-04-03T06:17:50;96867.59;;;15.86;35.44
19596;BME280;9945;46.010;8.946;2023-04-03T06:20:17;96871.44;;;16.05;34.56
19596;BME280;9945;46.010;8.946;2023-04-03T06:22:43;96864.13;;;16.35;32.15
19596;BME280;9945;46.010;8.946;2023-04-03T06:25:12;96864.97;;;16.63;32.08
19596;BME280;9945;46.010;8.946;2023-04-03T06:27:39;96858.63;;;16.92;30.86
19596;BME280;9945;46.010;8.946;2023-04-03T06:30:07;96864.59;;;17.14;29.10
19596;BME280;9945;46.010;8.946;2023-04-03T06:32:35;96857.94;;;17.25;29.01
19596;BME280;9945;46.010;8.946;2023-04-03T06:35:01;96872.38;;;17.29;29.83
19596;BME280;9945;46.010;8.946;2023-04-03T06:37:28;96873.66;;;17.39;33.21
19596;BME280;9945;46.010;8.946;2023-04-03T06:39:56;96883.69;;;17.51;33.37
19596;BME280;9945;46.010;8.946;2023-04-03T06:42:24;96870.09;;;17.67;31.65
19596;BME280;9945;46.010;8.946;2023-04-03T06:44:51;96864.81;;;17.80;29.79
19596;BME280;9945;46.010;8.946;2023-04-03T06:47:18;96865.63;;;17.81;29.68
19596;BME280;9945;46.010;8.946;2023-04-03T06:49:45;96865.84;;;17.92;28.49
19596;BME280;9945;46.010;8.946;2023-04-03T06:52:12;96865.44;;;18.08;28.44
19596;BME280;9945;46.010;8.946;2023-04-03T06:54:39;96865.63;;;18.13;29.28
19596;BME280;9945;46.010;8.946;2023-04-03T06:57:06;96869.31;;;18.12;28.06
19596;BME280;9945;46.010;8.946;2023-04-03T06:59:35;96867.69;;;18.25;27.23
19596;BME280;9945;46.010;8.946;2023-04-03T07:02:02;96868.50;;;18.32;27.94
19596;BME280;9945;46.010;8.946;2023-04-03T07:04:29;96886.44;;;18.43;28.20
19596;BME280;9945;46.010;8.946;2023-04-03T07:06:56;96868.50;;;18.58;27.17
19596;BME280;9945;46.010;8.946;2023-04-03T07:09:23;96878.06;;;18.66;26.45
19596;BME280;9945;46.010;8.946;2023-04-03T07:11:50;96871.72;;;18.73;27.63
19596;BME280;9945;46.010;8.946;2023-04-03T07:14:16;96877.22;;;18.85;28.05
19596;BME280;9945;46.010;8.946;2023-04-03T07:16:45;96860.44;;;18.98;26.47
19596;BME280;9945;46.010;8.946;2023-04-03T07:19:11;96870.59;;;19.14;26.45
19596;BME280;9945;46.010;8.946;2023-04-03T07:21:38;96873.81;;;19.22;26.57
19596;BME280;9945;46.010;8.946;2023-04-03T07:24:07;96876.13;;;19.12;24.51
19596;BME280;9945;46.010;8.946;2023-04-03T07:26:34;96870.53;;;19.27;25.30
19596;BME280;9945;46.010;8.946;2023-04-03T07:29:01;96880.66;;;19.50;25.21
19596;BME280;9945;46.010;8.946;2023-04-03T07:31:27;96880.66;;;19.50;25.16
19596;BME280;9945;46.010;8.946;2023-04-03T07:33:56;96873.91;;;19.54;24.73
19596;BME280;9945;46.010;8.946;2023-04-03T07:36:23;96879.41;;;19.59;25.16
19596;BME280;9945;46.010;8.946;2023-04-03T07:38:50;96877.75;;;19.64;24.29
19596;BME280;9945;46.010;8.946;2023-04-03T07:41:18;96878.72;;;19.70;24.96
19596;BME280;9945;46.010;8.946;2023-04-03T07:43:46;96858.66;;;19.74;24.42
19596;BME280;9945;46.010;8.946;2023-04-03T07:46:15;96872.94;;;19.80;24.53
19596;BME280;9945;46.010;8.946;2023-04-03T07:48:43;96860.63;;;19.85;24.50
19596;BME280;9945;46.010;8.946;2023-04-03T07:51:12;96867.31;;;19.94;23.99
19596;BME280;9945;46.010;8.946;2023-04-03T07:53:39;96861.69;;;20.09;23.97
19596;BME280;9945;46.010;8.946;2023-04-03T07:56:07;96863.03;;;20.18;24.02
19596;BME280;9945;46.010;8.946;2023-04-03T07:58:34;96860.06;;;20.08;23.22
19596;BME280;9945;46.010;8.946;2023-04-03T08:01:02;96846.38;;;20.29;25.35
19596;BME280;9945;46.010;8.946;2023-04-03T08:03:29;96857.50;;;20.69;24.83
19596;BME280;9945;46.010;8.946;2023-04-03T08:06:02;96863.50;;;20.65;23.54
19596;BME280;9945;46.010;8.946;2023-04-03T08:08:31;96841.88;;;20.55;21.72
19596;BME280;9945;46.010;8.946;2023-04-03T08:10:59;96854.50;;;20.41;22.04
19596;BME280;9945;46.010;8.946;2023-04-03T08:13:28;96849.34;;;20.46;22.64
19596;BME280;9945;46.010;8.946;2023-04-03T08:15:55;96849.19;;;20.41;22.51
19596;BME280;9945;46.010;8.946;2023-04-03T08:18:24;96850.56;;;20.44;22.51
19596;BME280;9945;46.010;8.946;2023-04-03T08:20:52;96851.78;;;20.48;22.54
19596;BME280;9945;46.010;8.946;2023-04-03T08:23:19;96848.69;;;20.69;22.32
19596;BME280;9945;46.010;8.946;2023-04-03T08:25:47;96855.34;;;20.78;21.78
19596;BME280;9945;46.010;8.946;2023-04-03T08:28:14;96864.75;;;20.81;22.35
19596;BME280;9945;46.010;8.946;2023-04-03T08:30:42;96858.75;;;20.85;22.20
19596;BME280;9945;46.010;8.946;2023-04-03T08:33:09;96853.66;;;21.02;21.61
19596;BME280;9945;46.010;8.946;2023-04-03T08:35:38;96847.69;;;21.25;21.37
19596;BME280;9945;46.010;8.946;2023-04-03T08:38:06;96851.25;;;21.48;21.25
19596;BME280;9945;46.010;8.946;2023-04-03T08:40:32;96843.34;;;21.72;20.86
19596;BME280;9945;46.010;8.946;2023-04-03T08:43:23;96843.03;;;21.80;20.42
19596;BME280;9945;46.010;8.946;2023-04-03T08:45:59;96834.34;;;21.96;21.64
19596;BME280;9945;46.010;8.946;2023-04-03T08:48:30;96845.00;;;22.26;21.10
19596;BME280;9945;46.010;8.946;2023-04-03T08:51:00;96843.59;;;22.47;19.97
19596;BME280;9945;46.010;8.946;2023-04-03T08:53:32;96841.88;;;22.87;19.86
19596;BME280;9945;46.010;8.946;2023-04-03T08:56:03;96838.88;;;23.24;18.95
19596;BME280;9945;46.010;8.946;2023-04-03T08:58:40;96845.38;;;23.68;18.58
19596;BME280;9945;46.010;8.946;2023-04-03T09:01:17;96846.97;;;23.97;18.10
19596;BME280;9945;46.010;8.946;2023-04-03T09:03:46;96842.78;;;24.35;17.68
19596;BME280;9945;46.010;8.946;2023-04-03T09:06:15;96836.41;;;24.91;17.26
19596;BME280;9945;46.010;8.946;2023-04-03T09:08:50;96834.63;;;25.45;16.99
19596;BME280;9945;46.010;8.946;2023-04-03T09:11:23;96835.59;;;26.15;16.46
19596;BME280;9945;46.010;8.946;2023-04-03T09:13:58;96826.56;;;27.10;15.52
19596;BME280;9945;46.010;8.946;2023-04-03T09:16:36;96836.78;;;28.01;15.49
19596;BME280;9945;46.010;8.946;2023-04-03T09:19:15;96847.28;;;28.68;14.63
19596;BME280;9945;46.010;8.946;2023-04-03T09:21:45;96837.31;;;29.58;13.88
19596;BME280;9945;46.010;8.946;2023-04-03T09:24:14;96834.00;;;30.16;12.75
19596;BME280;9945;46.010;8.946;2023-04-03T09:26:44;96841.22;;;30.59;12.84
19596;BME280;9945;46.010;8.946;2023-04-03T09:29:18;96836.84;;;31.16;12.71
19596;BME280;9945;46.010;8.946;2023-04-03T09:31:47;96836.53;;;31.60;11.83
19596;BME280;9945;46.010;8.946;2023-04-03T09:34:20;96824.31;;;32.00;11.36
19596;BME280;9945;46.010;8.946;2023-04-03T09:36:49;96834.78;;;32.25;12.08
19596;BME280;9945;46.010;8.946;2023-04-03T09:39:18;96824.06;;;32.34;11.09
19596;BME280;9945;46.010;8.946;2023-04-03T09:41:57;96836.91;;;32.61;10.79
19596;BME280;9945;46.010;8.946;2023-04-03T09:44:29;96830.84;;;33.10;11.17
19596;BME280;9945;46.010;8.946;2023-04-03T09:46:58;96824.91;;;33.76;10.19
19596;BME280;9945;46.010;8.946;2023-04-03T09:49:25;96819.66;;;34.47;9.59
19596;BME280;9945;46.010;8.946;2023-04-03T09:51:52;96813.03;;;34.92;9.67
19596;BME280;9945;46.010;8.946;2023-04-03T09:54:40;96823.53;;;35.73;9.67
19596;BME280;9945;46.010;8.946;2023-04-03T09:57:09;96816.34;;;35.77;8.74
19596;BME280;9945;46.010;8.946;2023-04-03T09:59:43;96817.44;;;36.11;8.76
19596;BME280;9945;46.010;8.946;2023-04-03T10:02:30;96799.47;;;36.35;8.51
19596;BME280;9945;46.010;8.946;2023-04-03T10:04:59;96806.22;;;36.38;8.99
19596;BME280;9945;46.010;8.946;2023-04-03T10:07:29;96800.50;;;36.78;8.47
19596;BME280;9945;46.010;8.946;2023-04-03T10:09:56;96793.59;;;37.18;8.84
19596;BME280;9945;46.010;8.946;2023-04-03T10:12:23;96793.41;;;37.73;7.88
19596;BME280;9945;46.010;8.946;2023-04-03T10:14:56;96798.00;;;38.23;7.81
19596;BME280;9945;46.010;8.946;2023-04-03T10:17:36;96793.16;;;38.41;8.04
19596;BME280;9945;46.010;8.946;2023-04-03T10:20:23;96789.97;;;39.32;7.67
19596;BME280;9945;46.010;8.946;2023-04-03T10:23:03;96789.47;;;39.67;6.91
19596;BME280;9945;46.010;8.946;2023-04-03T10:25:40;96788.47;;;39.99;7.09
19596;BME280;9945;46.010;8.946;2023-04-03T10:28:12;96790.16;;;40.60;6.53
19596;BME280;9945;46.010;8.946;2023-04-03T10:30:50;96772.81;;;41.18;6.67
19596;BME280;9945;46.010;8.946;2023-04-03T10:33:39;96777.84;;;41.32;6.52
19596;BME280;9945;46.010;8.946;2023-04-03T10:36:18;96775.78;;;42.18;6.25
19596;BME280;9945;46.010;8.946;2023-04-03T10:38:53;96769.13;;;42.61;5.82
19596;BME280;9945;46.010;8.946;2023-04-03T10:41:31;96769.78;;;43.23;5.36
19596;BME280;9945;46.010;8.946;2023-04-03T10:44:12;96769.78;;;43.00;5.46
19596;BME280;9945;46.010;8.946;2023-04-03T10:46:44;96763.50;;;43.83;5.48
19596;BME280;9945;46.010;8.946;2023-04-03T10:49:22;96772.09;;;44.41;4.58
19596;BME280;9945;46.010;8.946;2023-04-03T10:51:58;96769.44;;;44.89;4.66
19596;BME280;9945;46.010;8.946;2023-04-03T10:54:35;96762.78;;;45.48;5.22
19596;BME280;9945;46.010;8.946;2023-04-03T10:57:06;96762.56;;;45.85;4.75
19596;BME280;9945;46.010;8.946;2023-04-03T10:59:38;96761.09;;;46.12;4.65
19596;BME280;9945;46.010;8.946;2023-04-03T11:02:16;96762.03;;;46.91;4.21
19596;BME280;9945;46.010;8.946;2023-04-03T11:04:49;96752.53;;;47.20;4.31
19596;BME280;9945;46.010;8.946;2023-04-03T11:07:20;96750.03;;;47.75;4.38
19596;BME280;9945;46.010;8.946;2023-04-03T11:09:50;96755.63;;;47.61;4.23
19596;BME280;9945;46.010;8.946;2023-04-03T11:12:23;96748.88;;;48.49;3.53
19596;BME280;9945;46.010;8.946;2023-04-03T11:14:52;96752.03;;;49.07;3.65
19596;BME280;9945;46.010;8.946;2023-04-03T11:17:27;96737.59;;;49.22;3.35
19596;BME280;9945;46.010;8.946;2023-04-03T11:20:00;96738.59;;;49.39;3.25
19596;BME280;9945;46.010;8.946;2023-04-03T11:22:30;96732.81;;;49.19;3.26
19596;BME280;9945;46.010;8.946;2023-04-03T11:25:04;96725.28;;;49.57;3.02
19596;BME280;9945;46.010;8.946;2023-04-03T11:27:37;96731.75;;;49.44;3.18
19596;BME280;9945;46.010;8.946;2023-04-03T11:30:08;96725.59;;;50.27;3.02
19596;BME280;9945;46.010;8.946;2023-04-03T11:32:53;96725.97;;;49.28;3.34
19596;BME280;9945;46.010;8.946;2023-04-03T11:35:24;96732.38;;;50.26;3.00
19596;BME280;9945;46.010;8.946;2023-04-03T11:37:53;96712.50;;;50.51;3.18
19596;BME280;9945;46.010;8.946;2023-04-03T11:40:24;96708.28;;;50.90;3.07
19596;BME280;9945;46.010;8.946;2023-04-03T11:42:54;96718.66;;;51.13;2.82
19596;BME280;9945;46.010;8.946;2023-04-03T11:45:31;96711.53;;;50.85;2.98
19596;BME280;9945;46.010;8.946;2023-04-03T11:48:03;96701.38;;;51.61;2.57
19596;BME280;9945;46.010;8.946;2023-04-03T11:50:38;96709.56;;;52.07;3.26
19596;BME280;9945;46.010;8.946;2023-04-03T11:53:28;96702.16;;;52.53;2.41
19596;BME280;9945;46.010;8.946;2023-04-03T11:56:00;96698.56;;;52.52;2.15
19596;BME280;9945;46.010;8.946;2023-04-03T11:58:30;96709.41;;;52.67;2.72
19596;BME280;9945;46.010;8.946;2023-04-03T12:01:00;96690.31;;;52.29;2.52
19596;BME280;9945;46.010;8.946;2023-04-03T12:06:59;96689.31;;;51.83;2.64
19596;BME280;9945;46.010;8.946;2023-04-03T12:09:32;96695.81;;;52.33;2.30
19596;BME280;9945;46.010;8.946;2023-04-03T12:12:01;96688.63;;;51.20;2.31
19596;BME280;9945;46.010;8.946;2023-04-03T12:14:28;96693.75;;;50.75;2.88
19596;BME280;9945;46.010;8.946;2023-04-03T12:16:56;96688.09;;;50.55;2.55
19596;BME280;9945;46.010;8.946;2023-04-03T12:19:36;96683.13;;;49.86;2.81
19596;BME280;9945;46.010;8.946;2023-04-03T12:22:25;96665.00;;;49.71;2.39
19596;BME280;9945;46.010;8.946;2023-04-03T12:24:52;96677.94;;;50.18;2.85
19596;BME280;9945;46.010;8.946;2023-04-03T12:27:27;96671.44;;;49.68;2.83
19596;BME280;9945;46.010;8.946;2023-04-03T12:30:04;96675.00;;;49.68;3.05
19596;BME280;9945;46.010;8.946;2023-04-03T12:33:03;96665.59;;;48.32;3.17
19596;BME280;9945;46.010;8.946;2023-04-03T12:35:36;96662.06;;;47.33;2.98
19596;BME280;9945;46.010;8.946;2023-04-03T12:38:31;96657.81;;;46.72;3.59
19596;BME280;9945;46.010;8.946;2023-04-03T12:41:19;96661.44;;;46.62;3.91
19596;BME280;9945;46.010;8.946;2023-04-03T12:44:01;96658.81;;;45.57;3.83
19596;BME280;9945;46.010;8.946;2023-04-03T12:46:36;96655.44;;;46.39;3.38
19596;BME280;9945;46.010;8.946;2023-04-03T12:49:18;96648.69;;;46.08;3.40
19596;BME280;9945;46.010;8.946;2023-04-03T12:51:49;96641.84;;;45.66;3.47
19596;BME280;9945;46.010;8.946;2023-04-03T12:54:19;96638.22;;;44.82;3.72
19596;BME280;9945;46.010;8.946;2023-04-03T12:56:48;96646.72;;;44.16;4.18
19596;BME280;9945;46.010;8.946;2023-04-03T12:59:18;96626.13;;;42.56;4.70
19596;BME280;9945;46.010;8.946;2023-04-03T13:01:53;96615.81;;;39.79;5.23
19596;BME280;9945;46.010;8.946;2023-04-03T13:04:20;96619.13;;;38.52;5.70
19596;BME280;9945;46.010;8.946;2023-04-03T13:06:48;96615.03;;;36.93;6.92
19596;BME280;9945;46.010;8.946;2023-04-03T13:09:20;96606.47;;;35.08;7.53
19596;BME280;9945;46.010;8.946;2023-04-03T13:11:49;96608.31;;;33.19;7.75
19596;BME280;9945;46.010;8.946;2023-04-03T13:14:18;96609.22;;;31.69;8.54
19596;BME280;9945;46.010;8.946;2023-04-03T13:16:54;96587.94;;;30.31;8.22
19596;BME280;9945;46.010;8.946;2023-04-03T13:19:22;96595.00;;;29.50;8.95
19596;BME280;9945;46.010;8.946;2023-04-03T13:21:56;96589.28;;;29.23;9.40
19596;BME280;9945;46.010;8.946;2023-04-03T13:24:27;96591.03;;;29.04;10.43
19596;BME280;9945;46.010;8.946;2023-04-03T13:26:55;96595.22;;;28.32;9.89
19596;BME280;9945;46.010;8.946;2023-04-03T13:29:27;96592.41;;;27.62;10.25
19596;BME280;9945;46.010;8.946;2023-04-03T13:31:55;96583.00;;;27.34;10.31
19596;BME280;9945;46.010;8.946;2023-04-03T13:34:25;96578.16;;;27.11;10.16
19596;BME280;9945;46.010;8.946;2023-04-03T13:36:58;96568.31;;;26.34;10.51